Terminal Aerodrome Forecast
Issued by NWS

Home | Current Version | Previous Version | Text Only | Print | Product List | Glossary Off
Versions: 1 2 3 4 5 6 7 8 9 10 11 12 13 14 15 16 17 18 19 20

655
FTUS43 KTOP 232326
TAFMHK
TAF
KMHK 232326Z 2400/2424 03015G23KT P6SM VCSH SCT150
     FM240400 36015G23KT P6SM SCT010
     FM240800 30015G23KT P6SM SCT006 BKN011
     FM241500 30016G24KT P6SM VCSH BKN011
     FM241800 32016G24KT P6SM BKN010=

USA.gov is the U.S. government's official web portal to all federal, state and local government web resources and services.